sensor_id;sensor_type;location;lat;lon;timestamp;P1;durP1;ratioP1;P2;durP2;ratioP2
58774;SDS011;44545;47.480;19.024;2023-05-10T03:16:06;3.00;;;1.00;;
58774;SDS011;44545;47.480;19.024;2023-05-10T03:22:42;2.00;;;1.40;;
58774;SDS011;44545;47.480;19.024;2023-05-10T03:25:48;3.72;;;1.67;;
58774;SDS011;44545;47.480;19.024;2023-05-10T03:28:52;1.70;;;1.02;;
58774;SDS011;44545;47.480;19.024;2023-05-10T03:31:57;2.17;;;1.25;;
58774;SDS011;44545;47.480;19.024;2023-05-10T03:38:14;2.50;;;1.62;;
58774;SDS011;44545;47.480;19.024;2023-05-10T03:41:16;4.20;;;1.30;;
58774;SDS011;44545;47.480;19.024;2023-05-10T03:44:19;3.58;;;1.87;;
58774;SDS011;44545;47.480;19.024;2023-05-10T03:47:21;1.85;;;1.17;;
58774;SDS011;44545;47.480;19.024;2023-05-10T03:50:24;2.53;;;1.15;;
58774;SDS011;44545;47.480;19.024;2023-05-10T03:53:26;4.50;;;2.05;;
58774;SDS011;44545;47.480;19.024;2023-05-10T03:56:28;5.10;;;1.60;;
58774;SDS011;44545;47.480;19.024;2023-05-10T03:59:32;2.22;;;1.23;;
58774;SDS011;44545;47.480;19.024;2023-05-10T04:02:34;2.80;;;1.75;;
58774;SDS011;44545;47.480;19.024;2023-05-10T04:05:37;3.92;;;1.77;;
58774;SDS011;44545;47.480;19.024;2023-05-10T04:08:39;2.25;;;1.33;;
58774;SDS011;44545;47.480;19.024;2023-05-10T04:11:42;3.58;;;1.42;;
58774;SDS011;44545;47.480;19.024;2023-05-10T04:14:44;3.80;;;2.50;;
58774;SDS011;44545;47.480;19.024;2023-05-10T04:17:46;5.87;;;2.58;;
58774;SDS011;44545;47.480;19.024;2023-05-10T04:20:49;2.22;;;1.33;;
58774;SDS011;44545;47.480;19.024;2023-05-10T04:23:51;3.33;;;1.87;;
58774;SDS011;44545;47.480;19.024;2023-05-10T04:26:54;2.28;;;1.65;;
58774;SDS011;44545;47.480;19.024;2023-05-10T04:29:59;2.30;;;1.92;;
58774;SDS011;44545;47.480;19.024;2023-05-10T04:33:01;4.75;;;1.75;;
58774;SDS011;44545;47.480;19.024;2023-05-10T04:36:06;5.47;;;2.17;;
58774;SDS011;44545;47.480;19.024;2023-05-10T04:39:08;2.60;;;1.77;;
58774;SDS011;44545;47.480;19.024;2023-05-10T04:42:11;4.45;;;2.03;;
58774;SDS011;44545;47.480;19.024;2023-05-10T04:45:14;5.25;;;2.47;;
58774;SDS011;44545;47.480;19.024;2023-05-10T04:48:16;3.83;;;1.98;;
58774;SDS011;44545;47.480;19.024;2023-05-10T04:51:18;4.03;;;1.80;;
58774;SDS011;44545;47.480;19.024;2023-05-10T04:54:22;3.28;;;2.12;;
58774;SDS011;44545;47.480;19.024;2023-05-10T04:57:24;2.50;;;1.67;;
58774;SDS011;44545;47.480;19.024;2023-05-10T05:00:27;2.33;;;1.42;;
58774;SDS011;44545;47.480;19.024;2023-05-10T05:03:29;2.37;;;1.55;;
58774;SDS011;44545;47.480;19.024;2023-05-10T05:06:32;7.35;;;2.10;;
58774;SDS011;44545;47.480;19.024;2023-05-10T05:09:34;2.65;;;1.80;;
58774;SDS011;44545;47.480;19.024;2023-05-10T05:12:38;3.65;;;1.95;;
58774;SDS011;44545;47.480;19.024;2023-05-10T05:15:40;2.35;;;1.40;;
58774;SDS011;44545;47.480;19.024;2023-05-10T05:18:42;3.17;;;2.12;;
58774;SDS011;44545;47.480;19.024;2023-05-10T05:21:45;3.30;;;2.17;;
58774;SDS011;44545;47.480;19.024;2023-05-10T05:24:47;5.37;;;1.90;;
58774;SDS011;44545;47.480;19.024;2023-05-10T05:27:49;3.30;;;1.73;;
58774;SDS011;44545;47.480;19.024;2023-05-10T05:30:52;3.58;;;2.15;;
58774;SDS011;44545;47.480;19.024;2023-05-10T05:33:54;3.28;;;1.73;;
58774;SDS011;44545;47.480;19.024;2023-05-10T05:36:57;4.25;;;1.85;;
58774;SDS011;44545;47.480;19.024;2023-05-10T05:39:59;3.05;;;2.17;;
58774;SDS011;44545;47.480;19.024;2023-05-10T05:43:08;2.87;;;2.03;;
58774;SDS011;44545;47.480;19.024;2023-05-10T05:46:11;5.40;;;2.55;;
58774;SDS011;44545;47.480;19.024;2023-05-10T05:49:18;11.27;;;1.75;;
58774;SDS011;44545;47.480;19.024;2023-05-10T05:52:20;3.47;;;2.17;;
58774;SDS011;44545;47.480;19.024;2023-05-10T05:55:23;2.75;;;2.25;;
58774;SDS011;44545;47.480;19.024;2023-05-10T05:58:26;4.18;;;2.17;;
58774;SDS011;44545;47.480;19.024;2023-05-10T06:01:29;3.22;;;2.05;;
58774;SDS011;44545;47.480;19.024;2023-05-10T06:04:31;2.75;;;1.67;;
58774;SDS011;44545;47.480;19.024;2023-05-10T06:07:33;4.65;;;2.22;;
58774;SDS011;44545;47.480;19.024;2023-05-10T06:10:36;6.00;;;2.47;;
58774;SDS011;44545;47.480;19.024;2023-05-10T06:13:39;3.72;;;1.80;;
58774;SDS011;44545;47.480;19.024;2023-05-10T06:16:45;2.12;;;1.30;;
58774;SDS011;44545;47.480;19.024;2023-05-10T06:19:54;4.35;;;1.85;;
58774;SDS011;44545;47.480;19.024;2023-05-10T06:22:57;2.78;;;2.05;;
58774;SDS011;44545;47.480;19.024;2023-05-10T06:26:00;2.85;;;1.60;;
58774;SDS011;44545;47.480;19.024;2023-05-10T06:29:02;2.72;;;2.10;;
58774;SDS011;44545;47.480;19.024;2023-05-10T06:32:06;3.42;;;2.00;;
58774;SDS011;44545;47.480;19.024;2023-05-10T06:35:09;4.03;;;1.98;;
58774;SDS011;44545;47.480;19.024;2023-05-10T06:38:11;2.30;;;1.48;;
58774;SDS011;44545;47.480;19.024;2023-05-10T06:41:14;2.67;;;1.70;;
58774;SDS011;44545;47.480;19.024;2023-05-10T06:44:16;2.67;;;1.98;;
58774;SDS011;44545;47.480;19.024;2023-05-10T06:47:19;2.72;;;1.67;;
58774;SDS011;44545;47.480;19.024;2023-05-10T06:50:21;3.20;;;1.95;;
58774;SDS011;44545;47.480;19.024;2023-05-10T06:53:24;3.75;;;1.75;;
58774;SDS011;44545;47.480;19.024;2023-05-10T06:56:26;2.90;;;1.70;;
58774;SDS011;44545;47.480;19.024;2023-05-10T06:59:29;1.75;;;1.05;;
58774;SDS011;44545;47.480;19.024;2023-05-10T07:02:31;3.15;;;2.10;;
58774;SDS011;44545;47.480;19.024;2023-05-10T07:05:34;2.22;;;1.52;;
58774;SDS011;44545;47.480;19.024;2023-05-10T07:08:36;3.85;;;1.92;;
58774;SDS011;44545;47.480;19.024;2023-05-10T07:11:39;3.45;;;1.87;;
58774;SDS011;44545;47.480;19.024;2023-05-10T07:14:41;4.47;;;2.33;;
58774;SDS011;44545;47.480;19.024;2023-05-10T07:17:44;3.70;;;2.05;;
58774;SDS011;44545;47.480;19.024;2023-05-10T07:20:47;3.47;;;2.08;;
58774;SDS011;44545;47.480;19.024;2023-05-10T07:23:49;3.75;;;1.90;;
58774;SDS011;44545;47.480;19.024;2023-05-10T07:26:52;4.62;;;2.50;;
58774;SDS011;44545;47.480;19.024;2023-05-10T07:29:54;2.67;;;1.90;;
58774;SDS011;44545;47.480;19.024;2023-05-10T07:32:58;3.58;;;1.98;;
58774;SDS011;44545;47.480;19.024;2023-05-10T07:36:01;2.85;;;1.77;;
58774;SDS011;44545;47.480;19.024;2023-05-10T07:39:04;4.22;;;2.33;;
58774;SDS011;44545;47.480;19.024;2023-05-10T07:42:07;2.53;;;1.40;;
58774;SDS011;44545;47.480;19.024;2023-05-10T07:45:10;3.00;;;1.52;;
58774;SDS011;44545;47.480;19.024;2023-05-10T07:48:13;3.58;;;2.10;;
58774;SDS011;44545;47.480;19.024;2023-05-10T07:51:15;2.15;;;1.42;;
58774;SDS011;44545;47.480;19.024;2023-05-10T07:54:17;3.08;;;1.60;;
58774;SDS011;44545;47.480;19.024;2023-05-10T07:57:20;3.05;;;1.85;;
58774;SDS011;44545;47.480;19.024;2023-05-10T08:00:22;2.85;;;1.62;;
58774;SDS011;44545;47.480;19.024;2023-05-10T08:03:25;2.25;;;1.33;;
58774;SDS011;44545;47.480;19.024;2023-05-10T08:06:27;3.53;;;1.95;;
58774;SDS011;44545;47.480;19.024;2023-05-10T08:09:32;4.40;;;1.87;;
58774;SDS011;44545;47.480;19.024;2023-05-10T08:12:34;3.50;;;1.67;;
58774;SDS011;44545;47.480;19.024;2023-05-10T08:15:36;3.25;;;2.00;;
58774;SDS011;44545;47.480;19.024;2023-05-10T08:18:39;3.62;;;1.77;;
58774;SDS011;44545;47.480;19.024;2023-05-10T08:21:42;2.85;;;1.60;;
58774;SDS011;44545;47.480;19.024;2023-05-10T08:24:45;2.37;;;1.48;;
58774;SDS011;44545;47.480;19.024;2023-05-10T08:27:48;3.67;;;2.05;;
58774;SDS011;44545;47.480;19.024;2023-05-10T08:30:51;3.95;;;1.83;;
58774;SDS011;44545;47.480;19.024;2023-05-10T08:33:53;2.30;;;1.48;;
58774;SDS011;44545;47.480;19.024;2023-05-10T08:36:55;5.68;;;1.95;;
58774;SDS011;44545;47.480;19.024;2023-05-10T08:39:58;5.45;;;2.03;;
58774;SDS011;44545;47.480;19.024;2023-05-10T08:43:07;3.22;;;1.73;;
58774;SDS011;44545;47.480;19.024;2023-05-10T08:46:11;7.97;;;1.70;;
58774;SDS011;44545;47.480;19.024;2023-05-10T08:49:19;2.05;;;1.25;;
58774;SDS011;44545;47.480;19.024;2023-05-10T08:52:22;3.12;;;1.70;;
58774;SDS011;44545;47.480;19.024;2023-05-10T08:55:27;2.60;;;1.27;;
58774;SDS011;44545;47.480;19.024;2023-05-10T08:58:30;3.58;;;1.87;;
58774;SDS011;44545;47.480;19.024;2023-05-10T09:01:32;4.28;;;1.30;;
58774;SDS011;44545;47.480;19.024;2023-05-10T09:04:38;3.83;;;1.62;;
58774;SDS011;44545;47.480;19.024;2023-05-10T09:07:41;2.72;;;1.55;;
58774;SDS011;44545;47.480;19.024;2023-05-10T09:10:44;2.10;;;1.40;;
58774;SDS011;44545;47.480;19.024;2023-05-10T09:13:49;3.85;;;2.83;;
58774;SDS011;44545;47.480;19.024;2023-05-10T09:16:54;2.22;;;1.02;;
58774;SDS011;44545;47.480;19.024;2023-05-10T09:19:58;2.37;;;1.67;;
58774;SDS011;44545;47.480;19.024;2023-05-10T09:23:01;3.78;;;1.92;;
58774;SDS011;44545;47.480;19.024;2023-05-10T09:26:04;2.40;;;1.37;;
58774;SDS011;44545;47.480;19.024;2023-05-10T09:29:07;2.70;;;1.62;;
58774;SDS011;44545;47.480;19.024;2023-05-10T09:32:10;2.28;;;1.58;;
58774;SDS011;44545;47.480;19.024;2023-05-10T09:35:23;5.00;;;1.58;;
58774;SDS011;44545;47.480;19.024;2023-05-10T09:38:31;2.62;;;1.75;;
58774;SDS011;44545;47.480;19.024;2023-05-10T09:41:54;2.80;;;1.40;;
58774;SDS011;44545;47.480;19.024;2023-05-10T09:45:14;2.87;;;1.70;;
58774;SDS011;44545;47.480;19.024;2023-05-10T09:48:17;2.78;;;1.62;;
58774;SDS011;44545;47.480;19.024;2023-05-10T09:51:22;4.50;;;1.95;;
58774;SDS011;44545;47.480;19.024;2023-05-10T09:54:26;4.43;;;1.67;;
58774;SDS011;44545;47.480;19.024;2023-05-10T09:57:28;3.00;;;1.60;;
58774;SDS011;44545;47.480;19.024;2023-05-10T10:00:35;3.03;;;1.70;;
58774;SDS011;44545;47.480;19.024;2023-05-10T10:03:42;3.72;;;1.60;;
58774;SDS011;44545;47.480;19.024;2023-05-10T10:06:45;2.67;;;1.52;;
58774;SDS011;44545;47.480;19.024;2023-05-10T10:09:47;3.30;;;1.52;;
58774;SDS011;44545;47.480;19.024;2023-05-10T10:12:51;3.40;;;1.62;;
58774;SDS011;44545;47.480;19.024;2023-05-10T10:15:54;3.08;;;1.52;;
58774;SDS011;44545;47.480;19.024;2023-05-10T10:18:56;5.18;;;1.90;;
58774;SDS011;44545;47.480;19.024;2023-05-10T10:21:59;3.45;;;1.48;;
58774;SDS011;44545;47.480;19.024;2023-05-10T10:25:02;2.12;;;1.30;;
58774;SDS011;44545;47.480;19.024;2023-05-10T10:28:09;4.85;;;1.25;;
58774;SDS011;44545;47.480;19.024;2023-05-10T10:31:46;2.70;;;1.65;;
58774;SDS011;44545;47.480;19.024;2023-05-10T10:34:54;2.35;;;1.33;;
58774;SDS011;44545;47.480;19.024;2023-05-10T10:37:58;3.50;;;1.55;;
58774;SDS011;44545;47.480;19.024;2023-05-10T10:41:10;1.60;;;1.00;;
58774;SDS011;44545;47.480;19.024;2023-05-10T10:47:36;2.20;;;1.10;;
58774;SDS011;44545;47.480;19.024;2023-05-10T10:50:45;3.10;;;1.10;;
58774;SDS011;44545;47.480;19.024;2023-05-10T10:53:49;1.77;;;1.10;;
58774;SDS011;44545;47.480;19.024;2023-05-10T10:57:10;1.65;;;1.10;;
58774;SDS011;44545;47.480;19.024;2023-05-10T11:00:35;2.33;;;1.35;;
58774;SDS011;44545;47.480;19.024;2023-05-10T11:03:38;2.15;;;1.30;;
58774;SDS011;44545;47.480;19.024;2023-05-10T11:06:41;3.97;;;1.40;;
58774;SDS011;44545;47.480;19.024;2023-05-10T11:09:44;2.40;;;1.05;;
58774;SDS011;44545;47.480;19.024;2023-05-10T11:12:53;2.08;;;0.90;;
58774;SDS011;44545;47.480;19.024;2023-05-10T11:19:16;1.73;;;1.00;;
58774;SDS011;44545;47.480;19.024;2023-05-10T11:22:19;2.47;;;1.20;;
58774;SDS011;44545;47.480;19.024;2023-05-10T11:25:28;2.50;;;1.10;;
58774;SDS011;44545;47.480;19.024;2023-05-10T11:28:30;2.42;;;1.27;;
58774;SDS011;44545;47.480;19.024;2023-05-10T11:31:32;2.70;;;1.30;;
58774;SDS011;44545;47.480;19.024;2023-05-10T11:34:35;1.75;;;0.90;;
58774;SDS011;44545;47.480;19.024;2023-05-10T11:37:38;2.10;;;1.15;;
58774;SDS011;44545;47.480;19.024;2023-05-10T11:40:45;2.53;;;1.20;;
58774;SDS011;44545;47.480;19.024;2023-05-10T11:43:49;2.15;;;1.12;;
58774;SDS011;44545;47.480;19.024;2023-05-10T11:46:52;18.12;;;1.23;;
58774;SDS011;44545;47.480;19.024;2023-05-10T11:49:55;4.05;;;1.20;;
58774;SDS011;44545;47.480;19.024;2023-05-10T11:53:00;1.85;;;1.20;;
58774;SDS011;44545;47.480;19.024;2023-05-10T11:56:09;1.33;;;1.00;;
58774;SDS011;44545;47.480;19.024;2023-05-10T11:59:13;1.37;;;0.95;;
58774;SDS011;44545;47.480;19.024;2023-05-10T12:02:16;2.08;;;1.00;;
58774;SDS011;44545;47.480;19.024;2023-05-10T12:05:19;2.00;;;1.20;;
58774;SDS011;44545;47.480;19.024;2023-05-10T12:08:22;1.30;;;0.77;;
58774;SDS011;44545;47.480;19.024;2023-05-10T12:11:26;1.62;;;0.90;;
58774;SDS011;44545;47.480;19.024;2023-05-10T12:14:33;2.58;;;1.00;;
58774;SDS011;44545;47.480;19.024;2023-05-10T12:17:37;1.52;;;0.77;;
58774;SDS011;44545;47.480;19.024;2023-05-10T12:20:44;1.48;;;0.93;;
58774;SDS011;44545;47.480;19.024;2023-05-10T12:23:48;1.85;;;1.15;;
58774;SDS011;44545;47.480;19.024;2023-05-10T12:26:52;1.52;;;0.93;;
58774;SDS011;44545;47.480;19.024;2023-05-10T12:29:55;4.07;;;1.40;;
58774;SDS011;44545;47.480;19.024;2023-05-10T12:33:07;2.15;;;1.12;;
58774;SDS011;44545;47.480;19.024;2023-05-10T12:36:12;3.90;;;1.20;;
58774;SDS011;44545;47.480;19.024;2023-05-10T12:39:16;1.87;;;0.98;;
58774;SDS011;44545;47.480;19.024;2023-05-10T12:42:18;1.20;;;0.85;;
58774;SDS011;44545;47.480;19.024;2023-05-10T12:45:20;2.40;;;1.25;;
58774;SDS011;44545;47.480;19.024;2023-05-10T12:48:24;5.10;;;1.05;;
58774;SDS011;44545;47.480;19.024;2023-05-10T12:51:26;3.90;;;1.30;;
58774;SDS011;44545;47.480;19.024;2023-05-10T12:54:29;1.20;;;0.70;;
58774;SDS011;44545;47.480;19.024;2023-05-10T12:57:31;2.00;;;1.00;;
58774;SDS011;44545;47.480;19.024;2023-05-10T13:00:34;1.55;;;0.80;;
58774;SDS011;44545;47.480;19.024;2023-05-10T13:03:36;1.20;;;0.60;;
58774;SDS011;44545;47.480;19.024;2023-05-10T13:06:38;1.90;;;0.98;;
58774;SDS011;44545;47.480;19.024;2023-05-10T13:09:41;1.83;;;0.80;;
58774;SDS011;44545;47.480;19.024;2023-05-10T13:12:44;2.53;;;1.00;;
58774;SDS011;44545;47.480;19.024;2023-05-10T13:15:47;1.20;;;0.80;;
58774;SDS011;44545;47.480;19.024;2023-05-10T13:18:49;1.37;;;1.00;;
58774;SDS011;44545;47.480;19.024;2023-05-10T13:21:51;1.40;;;0.60;;
58774;SDS011;44545;47.480;19.024;2023-05-10T13:24:54;4.15;;;0.70;;
58774;SDS011;44545;47.480;19.024;2023-05-10T13:27:56;1.30;;;0.80;;
58774;SDS011;44545;47.480;19.024;2023-05-10T13:30:58;1.15;;;0.70;;
58774;SDS011;44545;47.480;19.024;2023-05-10T13:34:02;1.40;;;0.70;;
58774;SDS011;44545;47.480;19.024;2023-05-10T13:37:04;1.87;;;0.80;;
58774;SDS011;44545;47.480;19.024;2023-05-10T13:40:07;1.37;;;0.90;;
58774;SDS011;44545;47.480;19.024;2023-05-10T13:43:10;1.87;;;0.80;;
58774;SDS011;44545;47.480;19.024;2023-05-10T13:46:12;0.77;;;0.52;;
58774;SDS011;44545;47.480;19.024;2023-05-10T13:49:15;0.95;;;0.55;;
58774;SDS011;44545;47.480;19.024;2023-05-10T13:52:17;2.00;;;1.20;;
58774;SDS011;44545;47.480;19.024;2023-05-10T13:55:20;2.12;;;1.00;;
58774;SDS011;44545;47.480;19.024;2023-05-10T13:58:22;1.87;;;0.82;;
58774;SDS011;44545;47.480;19.024;2023-05-10T14:01:25;7.78;;;0.90;;
58774;SDS011;44545;47.480;19.024;2023-05-10T14:04:28;3.83;;;0.70;;
58774;SDS011;44545;47.480;19.024;2023-05-10T14:07:31;1.00;;;0.75;;
58774;SDS011;44545;47.480;19.024;2023-05-10T14:10:33;1.58;;;0.60;;
58774;SDS011;44545;47.480;19.024;2023-05-10T14:13:36;4.00;;;0.90;;
58774;SDS011;44545;47.480;19.024;2023-05-10T14:16:41;1.48;;;0.90;;
58774;SDS011;44545;47.480;19.024;2023-05-10T14:19:45;1.55;;;0.82;;
58774;SDS011;44545;47.480;19.024;2023-05-10T14:22:47;1.50;;;0.80;;
58774;SDS011;44545;47.480;19.024;2023-05-10T14:25:50;1.55;;;0.62;;
58774;SDS011;44545;47.480;19.024;2023-05-10T14:28:53;2.85;;;0.80;;
58774;SDS011;44545;47.480;19.024;2023-05-10T14:31:55;3.83;;;0.65;;
58774;SDS011;44545;47.480;19.024;2023-05-10T14:34:58;1.40;;;0.73;;
58774;SDS011;44545;47.480;19.024;2023-05-10T14:38:04;3.67;;;0.80;;
58774;SDS011;44545;47.480;19.024;2023-05-10T14:41:06;1.55;;;0.50;;
58774;SDS011;44545;47.480;19.024;2023-05-10T14:44:12;3.90;;;0.80;;
58774;SDS011;44545;47.480;19.024;2023-05-10T14:47:14;5.32;;;1.12;;
58774;SDS011;44545;47.480;19.024;2023-05-10T14:50:16;2.87;;;1.12;;
58774;SDS011;44545;47.480;19.024;2023-05-10T14:53:36;1.42;;;0.85;;
58774;SDS011;44545;47.480;19.024;2023-05-10T14:56:39;1.55;;;0.75;;
58774;SDS011;44545;47.480;19.024;2023-05-10T14:59:43;1.20;;;0.70;;
58774;SDS011;44545;47.480;19.024;2023-05-10T15:02:47;1.40;;;0.60;;
58774;SDS011;44545;47.480;19.024;2023-05-10T15:05:51;3.05;;;1.05;;
58774;SDS011;44545;47.480;19.024;2023-05-10T15:08:53;0.88;;;0.52;;
58774;SDS011;44545;47.480;19.024;2023-05-10T15:11:56;0.85;;;0.60;;
58774;SDS011;44545;47.480;19.024;2023-05-10T15:14:58;1.92;;;0.77;;
58774;SDS011;44545;47.480;19.024;2023-05-10T15:18:00;0.77;;;0.45;;
58774;SDS011;44545;47.480;19.024;2023-05-10T15:21:02;1.23;;;0.60;;
58774;SDS011;44545;47.480;19.024;2023-05-10T15:24:05;1.05;;;0.60;;
